Time;durP1;ratioP1;P1;durP2;ratioP2;P2;SDS_P1;SDS_P2;PMS_P1;PMS_P2;Temp;Humidity;BMP_temperature;BMP_pressure;BME280_temperature;BME280_humidity;BME280_pressure;Samples;Min_cycle;Max_cycle;Signal;HPM_P1;HPM_P2
2022/10/13 00:01:28;;;;;;;9.93;2.92;;;7.80;99.90;;;;;;4986818;28;20445;-75
2022/10/13 00:03:53;;;;;;;11.95;4.28;;;7.70;99.90;;;;;;4991291;28;20014;-74
2022/10/13 00:06:22;;;;;;;12.18;5.90;;;7.80;99.90;;;;;;4991472;28;20037;-75
2022/10/13 00:08:49;;;;;;;9.43;5.47;;;7.90;99.90;;;;;;4991233;28;20029;-74
2022/10/13 00:11:20;;;;;;;9.48;4.75;;;7.90;99.90;;;;;;4991111;28;20266;-74
2022/10/13 00:13:47;;;;;;;8.77;5.13;;;7.90;99.90;;;;;;4991132;28;20026;-74
2022/10/13 00:16:15;;;;;;;8.85;4.25;;;7.90;99.90;;;;;;4990925;28;20022;-76
2022/10/13 00:18:41;;;;;;;5.43;3.33;;;7.80;99.90;;;;;;4991094;28;20054;-74
2022/10/13 00:21:10;;;;;;;18.33;5.20;;;7.80;99.90;;;;;;4990965;28;20125;-75
2022/10/13 00:23:37;;;;;;;9.68;4.80;;;7.70;99.90;;;;;;4991439;28;20030;-75
2022/10/13 00:26:05;;;;;;;9.57;7.05;;;7.70;99.90;;;;;;4989891;28;20027;-74
2022/10/13 00:28:31;;;;;;;7.00;3.92;;;7.80;99.90;;;;;;4990838;28;20018;-76
2022/10/13 00:30:57;;;;;;;7.35;3.35;;;7.90;99.90;;;;;;4990614;28;20026;-75
2022/10/13 00:33:23;;;;;;;10.80;4.43;;;7.90;99.90;;;;;;4990888;28;20494;-76
2022/10/13 00:35:49;;;;;;;10.80;5.05;;;7.80;99.90;;;;;;4991279;28;20054;-76
2022/10/13 00:38:17;;;;;;;12.23;5.60;;;7.80;99.90;;;;;;4989885;28;20038;-75
2022/10/13 00:40:52;;;;;;;5.80;4.47;;;7.80;99.90;;;;;;4993860;28;20310;-75
2022/10/13 00:43:20;;;;;;;6.80;4.80;;;7.80;99.90;;;;;;4996451;28;20077;-76
2022/10/13 00:45:49;;;;;;;15.10;4.55;;;7.80;99.90;;;;;;4996162;28;20081;-76
2022/10/13 00:48:19;;;;;;;8.43;4.75;;;7.70;99.90;;;;;;4995308;28;20627;-77
2022/10/13 00:50:46;;;;;;;6.93;4.57;;;7.60;99.90;;;;;;4996599;28;20034;-75
2022/10/13 00:53:15;;;;;;;11.48;5.63;;;7.60;99.90;;;;;;4993104;28;20504;-76
2022/10/13 00:55:43;;;;;;;18.27;6.35;;;7.50;99.90;;;;;;4991411;28;20033;-74
2022/10/13 00:58:14;;;;;;;13.13;5.47;;;7.60;99.90;;;;;;4991027;28;20034;-74
2022/10/13 01:00:44;;;;;;;4.93;3.33;;;7.60;99.90;;;;;;4989447;28;20124;-77
2022/10/13 01:03:10;;;;;;;4.28;3.00;;;7.40;99.90;;;;;;4990761;28;20027;-75
2022/10/13 01:05:37;;;;;;;6.22;3.90;;;7.40;99.90;;;;;;4990557;28;20030;-77
2022/10/13 01:08:04;;;;;;;23.48;6.80;;;7.40;99.90;;;;;;4990703;28;20022;-75
2022/10/13 01:10:48;;;;;;;15.27;5.35;;;7.40;99.90;;;;;;4990655;28;20026;-75
2022/10/13 01:13:32;;;;;;;8.18;4.97;;;7.40;99.90;;;;;;4992398;28;20073;-76
2022/10/13 01:16:38;;;;;;;7.13;5.10;;;7.50;99.90;;;;;;4994334;28;20518;-76
2022/10/13 01:19:24;;;;;;;5.78;4.55;;;7.40;99.90;;;;;;4952853;29;20053;-75
2022/10/13 01:22:04;;;;;;;9.50;5.10;;;7.40;99.90;;;;;;4952752;29;20051;-75
2022/10/13 01:24:45;;;;;;;14.95;5.90;;;7.50;99.90;;;;;;4976023;28;20502;-74
2022/10/13 01:27:48;;;;;;;22.23;5.53;;;7.50;99.90;;;;;;4995761;28;20097;-75
2022/10/13 01:30:15;;;;;;;13.60;7.10;;;7.50;99.90;;;;;;4992680;28;20058;-74
2022/10/13 01:32:52;;;;;;;19.45;4.55;;;7.60;99.90;;;;;;4993980;28;20037;-75
2022/10/13 01:35:24;;;;;;;5.63;4.22;;;7.60;99.90;;;;;;4992587;28;20030;-74
2022/10/13 01:37:53;;;;;;;5.97;3.30;;;7.60;99.90;;;;;;4992745;28;20080;-74
2022/10/13 01:40:56;;;;;;;7.43;4.72;;;7.50;99.90;;;;;;4992708;28;20034;-74
2022/10/13 01:43:28;;;;;;;3.65;3.35;;;7.60;99.90;;;;;;4977962;28;20042;-74
2022/10/13 01:46:23;;;;;;;5.07;3.45;;;7.50;99.90;;;;;;4992185;28;20084;-76
2022/10/13 01:48:52;;;;;;;10.52;5.40;;;7.40;99.90;;;;;;4993910;28;20102;-74
2022/10/13 01:51:20;;;;;;;7.22;4.38;;;7.40;99.90;;;;;;4993483;28;20033;-75
2022/10/13 01:53:48;;;;;;;13.93;6.47;;;7.40;99.90;;;;;;4992763;28;20026;-75
2022/10/13 01:56:14;;;;;;;7.85;4.78;;;7.40;99.90;;;;;;4993742;28;20467;-74
2022/10/13 01:58:40;;;;;;;8.60;6.00;;;7.40;99.90;;;;;;4993643;28;20030;-78
2022/10/13 02:01:36;;;;;;;5.47;3.22;;;7.30;99.90;;;;;;4993343;28;20038;-76
2022/10/13 02:04:32;;;;;;;6.78;4.25;;;7.30;99.90;;;;;;4993440;28;20045;-76
2022/10/13 02:07:26;;;;;;;7.43;5.10;;;7.30;99.90;;;;;;4992104;28;20025;-75
2022/10/13 02:10:12;;;;;;;6.00;3.53;;;7.30;99.90;;;;;;4993504;28;20467;-74
2022/10/13 02:12:47;;;;;;;3.58;3.22;;;7.30;99.90;;;;;;4993421;28;20109;-74
2022/10/13 02:15:18;;;;;;;4.18;3.85;;;7.20;99.90;;;;;;4993189;28;20022;-75
2022/10/13 02:17:44;;;;;;;9.55;5.60;;;7.20;99.90;;;;;;4991657;28;20022;-77
2022/10/13 02:20:11;;;;;;;10.88;5.95;;;7.00;99.90;;;;;;4993182;28;20045;-75
2022/10/13 02:22:43;;;;;;;9.60;5.63;;;7.20;99.90;;;;;;4993038;28;20029;-75
2022/10/13 02:25:10;;;;;;;6.25;3.30;;;7.20;99.90;;;;;;4992466;28;20105;-77
2022/10/13 02:27:35;;;;;;;6.25;3.33;;;7.10;99.90;;;;;;4993217;28;20022;-77
2022/10/13 02:30:01;;;;;;;12.23;5.00;;;7.10;99.90;;;;;;4993184;28;20081;-75
2022/10/13 02:32:27;;;;;;;10.70;5.25;;;7.10;99.90;;;;;;4993133;28;20913;-74
2022/10/13 02:34:53;;;;;;;9.48;5.57;;;7.10;99.90;;;;;;4993360;28;20026;-74
2022/10/13 02:37:18;;;;;;;7.53;5.78;;;7.10;99.90;;;;;;4992969;28;20033;-75
2022/10/13 02:39:44;;;;;;;8.50;4.90;;;7.10;99.90;;;;;;4992704;28;20030;-76
2022/10/13 02:42:10;;;;;;;14.63;8.75;;;7.10;99.90;;;;;;4992845;28;20033;-76
2022/10/13 02:44:35;;;;;;;12.23;5.90;;;7.10;99.90;;;;;;4992835;28;20022;-76
2022/10/13 02:47:01;;;;;;;15.65;6.55;;;7.10;99.90;;;;;;4992856;28;20383;-75
2022/10/13 02:49:27;;;;;;;13.70;5.43;;;7.00;99.90;;;;;;4992716;28;20018;-77
2022/10/13 02:51:53;;;;;;;14.57;6.22;;;7.00;99.90;;;;;;4992787;28;20189;-75
2022/10/13 02:54:18;;;;;;;10.80;6.30;;;7.10;99.90;;;;;;4991180;28;20545;-74
2022/10/13 02:56:44;;;;;;;9.90;4.22;;;8.60;99.90;;;;;;4992553;28;20030;-75
2022/10/13 02:59:10;;;;;;;10.63;4.35;;;6.90;99.90;;;;;;4992561;28;20486;-74
2022/10/13 03:01:40;;;;;;;9.63;4.22;;;6.90;99.90;;;;;;4990858;28;20129;-77
2022/10/13 03:04:09;;;;;;;7.03;3.72;;;6.80;99.90;;;;;;4992711;28;20023;-75
2022/10/13 03:06:35;;;;;;;7.13;4.72;;;6.80;99.90;;;;;;4992134;28;20078;-75
2022/10/13 03:09:00;;;;;;;6.53;4.60;;;6.80;99.90;;;;;;4992582;28;20058;-75
2022/10/13 03:11:26;;;;;;;18.15;4.38;;;6.80;99.90;;;;;;4992182;28;20030;-75
2022/10/13 03:13:52;;;;;;;16.42;4.90;;;6.90;99.90;;;;;;4992271;28;20022;-76
2022/10/13 03:16:17;;;;;;;8.65;3.33;;;6.90;99.90;;;;;;4992051;28;20606;-75
2022/10/13 03:18:43;;;;;;;10.48;5.07;;;6.90;99.90;;;;;;4992146;28;20096;-76
2022/10/13 03:21:09;;;;;;;8.55;4.68;;;6.90;99.90;;;;;;4992546;28;20061;-74
2022/10/13 03:23:35;;;;;;;14.15;4.97;;;6.90;99.90;;;;;;4992143;28;20110;-77
2022/10/13 03:26:01;;;;;;;5.57;3.92;;;6.90;99.90;;;;;;4992236;28;20129;-75
2022/10/13 03:28:27;;;;;;;12.15;5.35;;;6.90;99.90;;;;;;4991983;28;20475;-77
2022/10/13 03:31:04;;;;;;;4.45;3.00;;;6.80;99.90;;;;;;4990083;28;20121;-75
2022/10/13 03:33:30;;;;;;;5.75;4.40;;;6.80;99.90;;;;;;4991899;28;20030;-76
2022/10/13 03:36:04;;;;;;;9.35;5.10;;;6.90;99.90;;;;;;4991175;28;20038;-77
2022/10/13 03:38:32;;;;;;;5.30;3.83;;;6.90;99.90;;;;;;4991974;28;20026;-75
2022/10/13 03:41:04;;;;;;;12.38;6.00;;;7.00;99.90;;;;;;4991773;28;20105;-77
2022/10/13 03:43:30;;;;;;;11.77;6.63;;;;;;;;;;4991559;28;20497;-75
2022/10/13 03:45:57;;;;;;;13.15;4.68;;;7.00;99.90;;;;;;4991571;28;20065;-76
2022/10/13 03:48:23;;;;;;;9.60;5.53;;;7.10;99.90;;;;;;4992192;28;20015;-74
2022/10/13 03:50:49;;;;;;;6.95;4.18;;;7.00;99.90;;;;;;4992001;28;20033;-74
2022/10/13 03:53:15;;;;;;;7.78;4.38;;;7.00;99.90;;;;;;4991778;28;20030;-75
2022/10/13 03:55:40;;;;;;;9.45;4.78;;;7.00;99.90;;;;;;4991382;28;20022;-77
2022/10/13 03:58:06;;;;;;;8.77;4.53;;;7.10;99.90;;;;;;4991453;28;20046;-75
2022/10/13 04:00:34;;;;;;;9.38;5.30;;;7.00;99.90;;;;;;4991173;28;20077;-75
2022/10/13 04:03:00;;;;;;;9.43;6.65;;;7.10;99.90;;;;;;4991723;28;20022;-75
2022/10/13 04:05:26;;;;;;;8.18;5.55;;;7.10;99.90;;;;;;4991889;28;20380;-75
2022/10/13 04:07:51;;;;;;;7.18;4.30;;;7.00;99.90;;;;;;4991212;28;20034;-76
2022/10/13 04:10:17;;;;;;;6.60;4.03;;;7.10;99.90;;;;;;4991400;28;20030;-75
2022/10/13 04:12:42;;;;;;;11.48;4.70;;;7.10;99.90;;;;;;4991312;28;20283;-75
2022/10/13 04:15:09;;;;;;;8.75;5.50;;;7.10;99.90;;;;;;4991201;28;20108;-74
2022/10/13 04:17:34;;;;;;;17.85;6.40;;;7.20;99.90;;;;;;4991349;28;20049;-76
2022/10/13 04:20:00;;;;;;;7.90;6.60;;;7.30;99.90;;;;;;4991036;28;20491;-75
2022/10/13 04:22:26;;;;;;;11.65;4.75;;;7.30;99.90;;;;;;4991072;28;20018;-75
2022/10/13 04:24:51;;;;;;;10.38;4.43;;;7.30;99.90;;;;;;4990925;28;20018;-74
2022/10/13 04:27:18;;;;;;;11.05;5.63;;;7.40;99.90;;;;;;4991064;28;20070;-75
2022/10/13 04:29:44;;;;;;;15.43;7.45;;;7.40;99.90;;;;;;4990776;28;20727;-75
2022/10/13 04:32:10;;;;;;;9.13;3.67;;;7.50;99.90;;;;;;4991127;28;20030;-77
2022/10/13 04:34:36;;;;;;;6.03;4.78;;;7.50;99.90;;;;;;4991198;28;20242;-75
2022/10/13 04:37:01;;;;;;;8.35;5.68;;;7.50;99.90;;;;;;4991074;28;20494;-76
2022/10/13 04:39:27;;;;;;;6.30;4.28;;;7.50;99.90;;;;;;4991066;28;20023;-76
2022/10/13 04:41:53;;;;;;;7.93;5.97;;;7.50;99.90;;;;;;4991032;28;20057;-76
2022/10/13 04:44:19;;;;;;;10.18;5.57;;;7.60;99.90;;;;;;4990646;28;20022;-76
2022/10/13 04:46:44;;;;;;;7.72;4.55;;;7.60;99.90;;;;;;4990804;28;20033;-75
2022/10/13 04:49:10;;;;;;;8.07;5.15;;;7.50;99.90;;;;;;4994011;28;20495;-74
2022/10/13 04:51:37;;;;;;;10.77;4.03;;;7.50;99.90;;;;;;4994982;28;20026;-75
2022/10/13 04:54:04;;;;;;;8.00;3.88;;;7.50;99.90;;;;;;4994821;28;20468;-74
2022/10/13 04:56:30;;;;;;;6.53;5.10;;;7.60;99.90;;;;;;4994461;28;20018;-74
2022/10/13 04:58:56;;;;;;;6.32;3.92;;;7.60;99.90;;;;;;4994812;28;20034;-74
2022/10/13 05:01:24;;;;;;;8.25;4.55;;;7.60;99.90;;;;;;4994596;28;20050;-75
2022/10/13 05:03:54;;;;;;;8.80;6.90;;;7.60;99.90;;;;;;4994654;28;20101;-74
2022/10/13 05:06:23;;;;;;;15.85;3.67;;;7.70;99.90;;;;;;4994732;28;20505;-75
2022/10/13 05:08:50;;;;;;;5.85;3.03;;;7.60;99.90;;;;;;4993234;28;20045;-75
2022/10/13 05:11:17;;;;;;;9.18;3.13;;;7.50;99.90;;;;;;4993228;28;20442;-75
2022/10/13 05:13:43;;;;;;;7.15;3.60;;;7.50;99.90;;;;;;4994472;28;20026;-77
2022/10/13 05:16:11;;;;;;;13.38;4.05;;;7.40;99.90;;;;;;4994787;28;20073;-76
2022/10/13 05:18:37;;;;;;;5.60;3.78;;;7.40;99.90;;;;;;4994350;28;20053;-77
2022/10/13 05:21:15;;;;;;;9.90;5.15;;;7.40;99.90;;;;;;4994127;28;20100;-77
2022/10/13 05:23:41;;;;;;;8.68;4.60;;;7.40;99.90;;;;;;4992939;28;20018;-76
2022/10/13 05:26:13;;;;;;;7.55;4.45;;;7.40;99.90;;;;;;4994180;28;20061;-76
2022/10/13 05:28:39;;;;;;;4.65;4.25;;;7.30;99.90;;;;;;4994100;28;20061;-76
2022/10/13 05:31:24;;;;;;;5.55;4.63;;;7.30;99.90;;;;;;4993934;28;20439;-76
2022/10/13 05:33:51;;;;;;;3.95;3.53;;;7.30;99.90;;;;;;4994167;28;20097;-75
2022/10/13 05:36:29;;;;;;;11.73;4.88;;;7.30;99.90;;;;;;4994161;28;20065;-75
2022/10/13 05:38:57;;;;;;;7.40;3.95;;;7.40;99.90;;;;;;4993920;28;20026;-76
2022/10/13 05:41:24;;;;;;;13.15;4.47;;;7.40;99.90;;;;;;4994086;28;20088;-75
2022/10/13 05:43:56;;;;;;;7.15;3.53;;;7.40;99.90;;;;;;4994032;28;20022;-76
2022/10/13 05:46:21;;;;;;;10.10;4.80;;;7.50;99.90;;;;;;4993832;28;20019;-76
2022/10/13 05:48:47;;;;;;;7.55;4.35;;;7.50;99.90;;;;;;4993864;28;20084;-75
2022/10/13 05:51:21;;;;;;;5.10;3.60;;;7.50;99.90;;;;;;4997144;28;20101;-76
2022/10/13 05:53:50;;;;;;;10.98;4.93;;;7.60;99.90;;;;;;4993278;28;20018;-75
2022/10/13 05:56:22;;;;;;;8.65;3.78;;;7.70;99.90;;;;;;5009372;28;20250;-75
2022/10/13 05:58:54;;;;;;;10.63;4.78;;;7.80;99.90;;;;;;4993133;28;20037;-76
2022/10/13 06:01:24;;;;;;;6.75;2.90;;;7.80;99.90;;;;;;4992904;28;20298;-75
2022/10/13 06:03:52;;;;;;;5.00;4.13;;;7.80;99.90;;;;;;4992093;28;20030;-74
2022/10/13 06:06:18;;;;;;;6.80;4.40;;;7.80;99.90;;;;;;4992270;28;20026;-74
2022/10/13 06:08:44;;;;;;;9.48;3.75;;;7.80;99.90;;;;;;4993554;28;20485;-75
2022/10/13 06:11:09;;;;;;;6.32;3.28;;;7.80;99.90;;;;;;4991919;28;20031;-75
2022/10/13 06:13:35;;;;;;;6.90;4.70;;;7.80;99.90;;;;;;4990503;28;20069;-76
2022/10/13 06:16:01;;;;;;;7.47;4.07;;;7.80;99.90;;;;;;4991428;28;20210;-75
2022/10/13 06:18:27;;;;;;;12.73;4.35;;;7.80;99.90;;;;;;4991454;28;20125;-75
2022/10/13 06:20:52;;;;;;;5.32;3.72;;;7.90;99.90;;;;;;4991610;28;20383;-75
2022/10/13 06:23:18;;;;;;;5.18;4.40;;;7.90;99.90;;;;;;4991437;28;20030;-75
2022/10/13 06:25:51;;;;;;;11.13;4.07;;;8.00;99.90;;;;;;4991454;28;20121;-75
2022/10/13 06:28:17;;;;;;;7.50;3.00;;;8.10;99.90;;;;;;4991286;28;20214;-75
2022/10/13 06:30:51;;;;;;;5.65;2.45;;;8.20;99.90;;;;;;4991239;28;20095;-75
2022/10/13 06:33:17;;;;;;;6.13;4.07;;;8.40;99.90;;;;;;4976956;28;20031;-75
2022/10/13 06:35:43;;;;;;;7.47;3.58;;;8.40;99.90;;;;;;4970722;28;20034;-75
2022/10/13 06:38:09;;;;;;;5.00;2.88;;;8.40;99.90;;;;;;4973529;28;20027;-75
2022/10/13 06:40:34;;;;;;;5.35;2.72;;;8.50;99.90;;;;;;4972124;28;20030;-76
2022/10/13 06:43:00;;;;;;;5.88;2.70;;;8.50;99.90;;;;;;4972830;28;20027;-75
2022/10/13 06:45:26;;;;;;;8.43;4.07;;;8.50;99.90;;;;;;4973213;28;20451;-75
2022/10/13 06:47:54;;;;;;;13.60;4.43;;;8.60;99.90;;;;;;4973574;28;20027;-75
2022/10/13 06:50:20;;;;;;;5.63;3.80;;;8.60;99.90;;;;;;4973433;28;20027;-75
2022/10/13 06:52:46;;;;;;;5.93;4.45;;;8.70;99.90;;;;;;4973176;28;20026;-75
2022/10/13 06:55:11;;;;;;;3.40;2.40;;;8.80;99.90;;;;;;4973267;28;20035;-75
2022/10/13 06:57:37;;;;;;;5.57;3.60;;;8.90;99.90;;;;;;4972036;28;20023;-75
2022/10/13 07:00:04;;;;;;;6.40;3.25;;;9.00;99.90;;;;;;4973079;28;20035;-75
2022/10/13 07:02:31;;;;;;;6.68;3.72;;;;;;;;;;4965857;28;20094;-76
2022/10/13 07:04:56;;;;;;;5.97;3.83;;;9.10;99.90;;;;;;4972049;28;20534;-76
2022/10/13 07:07:22;;;;;;;6.57;3.58;;;9.20;99.90;;;;;;4971633;28;20034;-76
2022/10/13 07:09:51;;;;;;;7.43;4.03;;;9.30;99.90;;;;;;4970596;28;20089;-75
2022/10/13 07:12:17;;;;;;;8.15;3.72;;;9.50;99.90;;;;;;4971224;28;20078;-76
2022/10/13 07:14:43;;;;;;;8.93;4.03;;;9.60;99.90;;;;;;4970595;28;20039;-76
2022/10/13 07:17:09;;;;;;;7.18;3.88;;;10.00;99.90;;;;;;4971174;28;20035;-77
2022/10/13 07:19:35;;;;;;;4.85;2.97;;;10.00;99.90;;;;;;4970526;28;20046;-77
2022/10/13 07:22:01;;;;;;;7.63;3.42;;;10.10;99.90;;;;;;4968633;28;20035;-76
2022/10/13 07:24:27;;;;;;;9.15;3.03;;;10.30;99.90;;;;;;4969730;28;20030;-76
2022/10/13 07:26:52;;;;;;;4.93;2.83;;;10.60;99.90;;;;;;4970111;28;20030;-76
2022/10/13 07:29:18;;;;;;;5.13;3.42;;;10.70;99.90;;;;;;4969274;28;20026;-76
2022/10/13 07:31:45;;;;;;;7.13;3.10;;;10.80;99.90;;;;;;4969585;28;20287;-75
2022/10/13 07:34:11;;;;;;;5.60;3.47;;;11.00;99.90;;;;;;4969811;28;20536;-76
2022/10/13 07:36:40;;;;;;;7.85;3.10;;;11.60;99.90;;;;;;4969711;28;20062;-76
2022/10/13 07:39:07;;;;;;;13.18;4.70;;;11.40;99.90;;;;;;4968353;28;20031;-76
2022/10/13 07:41:33;;;;;;;4.20;3.08;;;11.50;99.90;;;;;;4968215;28;20053;-76
2022/10/13 07:43:58;;;;;;;8.70;4.57;;;11.70;99.90;;;;;;4969610;28;20027;-75
2022/10/13 07:46:25;;;;;;;5.90;3.45;;;11.80;99.90;;;;;;4969440;28;20030;-77
2022/10/13 07:48:54;;;;;;;7.68;4.28;;;11.80;99.90;;;;;;4984337;28;20031;-76
2022/10/13 07:51:21;;;;;;;14.48;3.80;;;11.90;99.90;;;;;;4969095;28;20019;-76
2022/10/13 07:53:47;;;;;;;14.65;5.07;;;12.00;99.90;;;;;;4969512;28;20089;-76
2022/10/13 07:56:15;;;;;;;8.93;6.47;;;11.90;99.90;;;;;;4969183;28;20089;-76
2022/10/13 07:58:44;;;;;;;10.20;4.75;;;12.00;99.90;;;;;;4968936;28;20492;-77
2022/10/13 08:01:10;;;;;;;5.85;4.20;;;12.00;99.90;;;;;;4968444;28;20970;-76
2022/10/13 08:03:36;;;;;;;9.25;4.43;;;12.10;99.90;;;;;;4969555;28;20317;-76
2022/10/13 08:06:04;;;;;;;7.30;3.92;;;12.10;99.90;;;;;;4969527;28;20275;-76
2022/10/13 08:08:33;;;;;;;4.28;3.78;;;12.20;99.90;;;;;;4969154;28;20033;-76
2022/10/13 08:11:10;;;;;;;15.85;5.95;;;12.40;99.90;;;;;;4967914;28;20038;-76
2022/10/13 08:13:36;;;;;;;5.18;3.30;;;12.50;99.90;;;;;;4969127;28;20041;-76
2022/10/13 08:16:02;;;;;;;9.30;4.85;;;12.60;99.90;;;;;;4968813;28;20026;-76
2022/10/13 08:18:29;;;;;;;7.43;4.68;;;12.70;99.90;;;;;;4968536;28;20050;-77
2022/10/13 08:20:58;;;;;;;7.28;3.60;;;12.90;99.90;;;;;;4968376;28;20121;-76
2022/10/13 08:23:23;;;;;;;7.90;4.28;;;13.00;99.90;;;;;;4968505;28;20077;-77
2022/10/13 08:25:49;;;;;;;8.13;5.10;;;13.20;99.90;;;;;;4968909;28;20027;-76
2022/10/13 08:28:27;;;;;;;15.00;7.00;;;13.30;99.90;;;;;;4968135;28;20115;-76
2022/10/13 08:30:56;;;;;;;10.02;5.47;;;13.30;99.90;;;;;;4968235;28;20030;-76
2022/10/13 08:33:23;;;;;;;10.88;5.03;;;13.50;99.90;;;;;;4968881;28;20018;-76
2022/10/13 08:35:49;;;;;;;4.78;4.20;;;13.70;99.90;;;;;;4966883;28;20130;-77
2022/10/13 08:38:15;;;;;;;7.65;3.85;;;13.80;99.90;;;;;;4968521;28;20045;-76
2022/10/13 08:40:46;;;;;;;6.47;4.55;;;14.00;99.90;;;;;;4968807;28;20472;-76
2022/10/13 08:43:15;;;;;;;8.65;4.35;;;14.10;99.90;;;;;;4968094;28;20558;-75
2022/10/13 08:45:41;;;;;;;10.38;3.70;;;14.20;99.90;;;;;;4966730;28;20140;-76
2022/10/13 08:48:17;;;;;;;4.50;2.70;;;14.40;99.90;;;;;;4983175;28;20062;-76
2022/10/13 08:50:48;;;;;;;4.18;2.63;;;14.40;99.90;;;;;;4968692;28;20070;-76
2022/10/13 08:53:22;;;;;;;8.80;2.65;;;14.80;99.90;;;;;;4968568;28;20030;-76
2022/10/13 08:55:51;;;;;;;3.03;2.55;;;14.80;99.90;;;;;;4968530;28;20123;-76
2022/10/13 08:58:21;;;;;;;8.52;2.65;;;15.10;99.90;;;;;;4968215;28;20026;-76
2022/10/13 09:00:50;;;;;;;4.60;2.72;;;15.30;99.90;;;;;;4968102;28;20627;-75
2022/10/13 09:03:23;;;;;;;5.13;1.92;;;15.50;99.90;;;;;;4968742;28;20034;-76
2022/10/13 09:06:12;;;;;;;8.68;3.40;;;15.70;99.90;;;;;;4982692;28;20042;-76
2022/10/13 09:09:11;;;;;;;2.13;1.63;;;15.70;99.90;;;;;;4986040;28;20561;-76
2022/10/13 09:11:39;;;;;;;5.00;2.85;;;15.60;99.90;;;;;;4965164;28;20044;-75
2022/10/13 09:14:08;;;;;;;4.03;2.45;;;15.90;99.90;;;;;;4986141;28;20073;-76
2022/10/13 09:16:36;;;;;;;2.97;2.20;;;16.00;99.90;;;;;;4985746;28;20410;-76
2022/10/13 09:19:25;;;;;;;5.05;2.83;;;16.30;99.90;;;;;;4985828;28;20046;-76
2022/10/13 09:21:56;;;;;;;4.75;2.40;;;16.20;99.90;;;;;;4987793;28;20038;-75
2022/10/13 09:24:24;;;;;;;4.97;2.47;;;16.30;99.90;;;;;;4989304;28;20041;-76
2022/10/13 09:27:19;;;;;;;3.03;1.58;;;16.50;99.90;;;;;;4987173;28;20455;-76
2022/10/13 09:29:45;;;;;;;2.72;2.05;;;16.40;99.90;;;;;;4986787;28;20026;-77
2022/10/13 09:32:19;;;;;;;1.98;1.77;;;16.30;99.90;;;;;;4986820;28;20033;-78
2022/10/13 09:34:45;;;;;;;2.75;2.13;;;16.30;99.90;;;;;;4993220;28;20018;-76
2022/10/13 09:37:21;;;;;;;4.85;2.13;;;16.50;99.90;;;;;;4994385;28;20058;-76
2022/10/13 09:40:02;;;;;;;4.28;2.33;;;16.50;99.90;;;;;;4992450;28;20050;-76
2022/10/13 09:42:30;;;;;;;4.47;2.85;;;16.50;99.90;;;;;;4990797;28;20538;-78
2022/10/13 09:44:59;;;;;;;2.83;2.17;;;16.60;99.90;;;;;;4990458;28;20034;-77
2022/10/13 09:47:26;;;;;;;4.25;1.77;;;16.90;99.90;;;;;;4991657;28;20072;-77
2022/10/13 09:50:02;;;;;;;4.47;2.75;;;16.90;99.90;;;;;;4991101;28;20196;-78
2022/10/13 09:52:28;;;;;;;3.88;2.20;;;16.90;99.90;;;;;;4988857;28;20038;-78
2022/10/13 09:55:00;;;;;;;4.80;3.50;;;17.00;99.90;;;;;;4990210;28;20026;-77
2022/10/13 09:57:42;;;;;;;5.18;2.58;;;17.30;99.90;;;;;;4990530;28;20544;-77
2022/10/13 10:00:27;;;;;;;2.47;2.03;;;17.40;99.90;;;;;;4974494;28;20031;-77
2022/10/13 10:03:10;;;;;;;21.60;2.13;;;17.40;99.90;;;;;;4971093;28;20065;-78
2022/10/13 10:05:48;;;;;;;4.13;2.22;;;17.70;99.90;;;;;;4971516;28;20482;-78
2022/10/13 10:08:34;;;;;;;6.97;3.00;;;17.80;99.90;;;;;;4986086;28;20051;-78
2022/10/13 10:11:01;;;;;;;2.63;2.30;;;;;;;;;;4971766;28;20107;-77
2022/10/13 10:13:27;;;;;;;7.68;2.90;;;18.00;99.90;;;;;;4968777;28;20035;-78
2022/10/13 10:16:29;;;;;;;4.72;1.77;;;18.20;99.90;;;;;;4970352;28;20034;-77
2022/10/13 10:19:28;;;;;;;1.70;1.52;;;18.40;99.90;;;;;;4968904;28;20089;-78
2022/10/13 10:21:54;;;;;;;1.73;1.60;;;18.60;99.90;;;;;;4970856;28;20885;-77
2022/10/13 10:24:47;;;;;;;3.67;1.98;;;18.20;99.90;;;;;;4970851;28;20027;-77
2022/10/13 10:27:51;;;;;;;1.98;1.83;;;18.10;99.90;;;;;;4970735;28;20033;-77
2022/10/13 10:30:19;;;;;;;5.03;1.77;;;18.10;99.90;;;;;;4921378;28;20046;-77
2022/10/13 10:33:11;;;;;;;29.17;10.40;;;18.10;99.90;;;;;;4970772;28;20105;-77
2022/10/13 10:36:03;;;;;;;6.20;2.85;;;18.10;99.90;;;;;;4969282;28;20027;-76
2022/10/13 10:39:01;;;;;;;4.63;1.98;;;18.30;99.90;;;;;;4969340;28;20512;-77
2022/10/13 10:41:45;;;;;;;3.95;3.17;;;18.30;99.90;;;;;;4970284;28;20518;-78
2022/10/13 10:44:18;;;;;;;6.72;2.60;;;18.20;99.90;;;;;;4970195;28;20031;-78
2022/10/13 10:46:48;;;;;;;4.15;1.50;;;18.20;99.90;;;;;;4970075;28;20035;-78
2022/10/13 10:49:29;;;;;;;4.65;1.80;;;18.40;99.90;;;;;;4970194;28;20102;-77
2022/10/13 10:51:55;;;;;;;2.38;1.73;;;18.20;99.90;;;;;;4970427;28;20408;-77
2022/10/13 10:54:47;;;;;;;2.15;1.33;;;18.20;99.90;;;;;;4970435;28;20077;-77
2022/10/13 10:57:31;;;;;;;3.38;2.40;;;18.10;99.90;;;;;;4970281;28;20019;-76
2022/10/13 11:00:12;;;;;;;2.78;1.73;;;17.70;99.90;;;;;;4969747;28;20050;-77
2022/10/13 11:03:05;;;;;;;2.80;1.85;;;17.70;99.90;;;;;;4970966;28;20038;-77
2022/10/13 11:05:55;;;;;;;1.92;1.52;;;17.50;99.90;;;;;;4969486;28;20027;-78
2022/10/13 11:08:36;;;;;;;6.63;2.20;;;17.50;99.90;;;;;;4968900;28;20027;-78
2022/10/13 11:11:21;;;;;;;8.07;2.03;;;17.60;99.90;;;;;;4969009;28;20061;-77
2022/10/13 11:14:18;;;;;;;11.15;1.55;;;17.80;99.90;;;;;;4968357;28;20027;-78
2022/10/13 11:17:06;;;;;;;1.48;1.08;;;18.10;99.90;;;;;;4970395;28;20089;-78
2022/10/13 11:19:33;;;;;;;1.60;1.08;;;18.20;99.90;;;;;;4967932;28;20616;-77
2022/10/13 11:21:58;;;;;;;2.40;1.85;;;18.40;99.90;;;;;;4967721;28;20042;-78
2022/10/13 11:24:37;;;;;;;2.42;1.27;;;18.70;99.90;;;;;;4967807;28;20026;-78
2022/10/13 11:27:15;;;;;;;2.97;1.63;;;19.30;99.90;;;;;;4967588;28;20026;-78
2022/10/13 11:29:56;;;;;;;1.75;1.25;;;19.70;99.90;;;;;;4969063;28;20038;-77
2022/10/13 11:32:29;;;;;;;1.92;1.50;;;19.60;99.90;;;;;;4969705;28;20122;-78
2022/10/13 11:35:04;;;;;;;4.50;2.95;;;19.60;99.90;;;;;;4967899;28;20512;-77
2022/10/13 11:37:57;;;;;;;4.20;1.65;;;19.30;99.90;;;;;;4967797;28;20031;-77
2022/10/13 11:40:44;;;;;;;2.60;1.50;;;18.90;99.90;;;;;;4967424;28;20034;-78
2022/10/13 11:43:19;;;;;;;0.90;0.90;;;19.00;99.90;;;;;;4968692;28;20601;-77
2022/10/13 11:46:18;;;;;;;3.20;1.45;;;18.90;99.90;;;;;;4968381;28;20027;-78
2022/10/13 11:48:53;;;;;;;3.58;1.45;;;19.10;99.90;;;;;;4967577;28;20622;-79
2022/10/13 11:51:45;;;;;;;6.10;2.42;;;19.50;99.90;;;;;;4968880;28;20030;-77
2022/10/13 11:54:13;;;;;;;3.22;1.65;;;19.70;99.90;;;;;;4983393;28;20050;-79
2022/10/13 11:56:49;;;;;;;1.00;1.00;;;20.00;99.90;;;;;;4968282;28;20031;-79
2022/10/13 11:59:36;;;;;;;1.65;1.40;;;20.20;99.90;;;;;;4966753;28;20062;-78
2022/10/13 12:02:16;;;;;;;4.57;2.13;;;20.80;99.90;;;;;;4967497;28;20039;-78
2022/10/13 12:04:44;;;;;;;2.05;1.23;;;20.70;99.90;;;;;;4968568;28;20069;-78
2022/10/13 12:07:12;;;;;;;1.05;0.90;;;20.60;99.90;;;;;;4968680;28;20540;-78
2022/10/13 12:09:55;;;;;;;1.73;1.15;;;20.20;99.90;;;;;;4966967;28;20031;-78
2022/10/13 12:12:22;;;;;;;2.95;1.45;;;20.20;99.90;;;;;;4968883;28;20109;-78
2022/10/13 12:14:51;;;;;;;1.40;1.30;;;20.20;99.90;;;;;;4966574;28;20113;-77
2022/10/13 12:17:29;;;;;;;0.97;0.97;;;19.90;99.90;;;;;;4967533;28;20094;-77
2022/10/13 12:19:58;;;;;;;2.03;1.73;;;19.20;99.90;;;;;;4968555;28;20097;-77
2022/10/13 12:22:24;;;;;;;1.48;1.38;;;18.50;99.90;;;;;;4969221;28;20558;-78
2022/10/13 12:25:05;;;;;;;1.85;1.60;;;18.00;99.90;;;;;;4968865;28;20399;-77
2022/10/13 12:27:41;;;;;;;10.95;2.70;;;18.00;99.90;;;;;;4968338;28;20416;-78
2022/10/13 12:30:30;;;;;;;8.07;1.85;;;17.80;99.90;;;;;;4967920;28;20074;-77
2022/10/13 12:32:59;;;;;;;1.48;1.38;;;17.70;99.90;;;;;;4969155;28;20019;-78
2022/10/13 12:35:26;;;;;;;;;;;17.60;99.90;;;;;;4967159;28;20487;-78
2022/10/13 12:37:53;;;;;;;0.68;0.68;;;17.60;99.90;;;;;;4968430;28;19964;-77
2022/10/13 12:40:20;;;;;;;2.72;1.30;;;17.60;99.90;;;;;;4966579;28;20030;-79
2022/10/13 12:42:47;;;;;;;5.40;1.92;;;17.50;99.90;;;;;;4968078;28;20019;-78
2022/10/13 12:45:22;;;;;;;2.17;2.05;;;17.40;99.90;;;;;;4967730;28;20026;-77
2022/10/13 12:47:53;;;;;;;0.90;0.75;;;17.40;99.90;;;;;;4968059;28;20033;-78
2022/10/13 12:50:32;;;;;;;3.05;2.13;;;17.70;99.90;;;;;;4968148;28;20093;-77
2022/10/13 12:53:07;;;;;;;1.70;1.45;;;17.60;99.90;;;;;;4966553;28;20062;-77
2022/10/13 12:55:34;;;;;;;2.80;0.70;;;17.60;99.90;;;;;;4967607;28;20058;-78
2022/10/13 12:58:01;;;;;;;1.55;1.00;;;17.70;99.90;;;;;;4966237;28;20054;-79
2022/10/13 13:00:29;;;;;;;2.78;1.10;;;17.90;99.90;;;;;;4966894;28;20074;-79
2022/10/13 13:02:56;;;;;;;1.02;1.02;;;18.10;99.90;;;;;;4987846;28;20089;-78
2022/10/13 13:05:33;;;;;;;6.63;3.70;;;18.30;99.90;;;;;;4987377;28;20525;-77
2022/10/13 13:07:59;;;;;;;2.88;1.95;;;18.60;99.90;;;;;;4986235;28;20058;-78
2022/10/13 13:10:25;;;;;;;3.92;1.02;;;18.50;99.90;;;;;;4989501;28;20030;-79
2022/10/13 13:13:11;;;;;;;0.98;0.90;;;18.40;99.90;;;;;;4991382;28;20022;-78